sensor_id;sensor_type;location;lat;lon;timestamp;P1;durP1;ratioP1;P2;durP2;ratioP2
59434;SDS011;45241;49.768;8.636;2023-03-08T00:02:16;13.18;;;7.05;;
59434;SDS011;45241;49.768;8.636;2023-03-08T00:04:41;11.45;;;7.50;;
59434;SDS011;45241;49.768;8.636;2023-03-08T00:07:06;13.13;;;7.50;;
59434;SDS011;45241;49.768;8.636;2023-03-08T00:09:32;11.02;;;6.82;;
59434;SDS011;45241;49.768;8.636;2023-03-08T00:11:57;10.95;;;6.97;;
59434;SDS011;45241;49.768;8.636;2023-03-08T00:14:22;13.52;;;6.70;;
59434;SDS011;45241;49.768;8.636;2023-03-08T00:16:48;12.90;;;7.03;;
59434;SDS011;45241;49.768;8.636;2023-03-08T00:19:13;10.45;;;6.55;;
59434;SDS011;45241;49.768;8.636;2023-03-08T00:21:38;12.10;;;6.95;;
59434;SDS011;45241;49.768;8.636;2023-03-08T00:24:04;12.13;;;7.53;;
59434;SDS011;45241;49.768;8.636;2023-03-08T00:26:29;14.10;;;7.28;;
59434;SDS011;45241;49.768;8.636;2023-03-08T00:28:55;15.75;;;7.35;;
59434;SDS011;45241;49.768;8.636;2023-03-08T00:31:20;11.35;;;6.50;;
59434;SDS011;45241;49.768;8.636;2023-03-08T00:33:45;12.30;;;6.85;;
59434;SDS011;45241;49.768;8.636;2023-03-08T00:36:13;12.02;;;7.30;;
59434;SDS011;45241;49.768;8.636;2023-03-08T00:38:40;13.23;;;6.82;;
59434;SDS011;45241;49.768;8.636;2023-03-08T00:41:05;13.18;;;7.38;;
59434;SDS011;45241;49.768;8.636;2023-03-08T00:43:31;11.70;;;6.50;;
59434;SDS011;45241;49.768;8.636;2023-03-08T00:45:57;13.43;;;7.22;;
59434;SDS011;45241;49.768;8.636;2023-03-08T00:48:22;12.30;;;6.72;;
59434;SDS011;45241;49.768;8.636;2023-03-08T00:50:48;12.20;;;7.18;;
59434;SDS011;45241;49.768;8.636;2023-03-08T00:53:13;12.77;;;7.20;;
59434;SDS011;45241;49.768;8.636;2023-03-08T00:55:38;12.48;;;7.25;;
59434;SDS011;45241;49.768;8.636;2023-03-08T00:58:11;13.60;;;7.20;;
59434;SDS011;45241;49.768;8.636;2023-03-08T01:00:36;13.20;;;7.22;;
59434;SDS011;45241;49.768;8.636;2023-03-08T01:03:01;11.30;;;6.30;;
59434;SDS011;45241;49.768;8.636;2023-03-08T01:05:27;11.95;;;6.47;;
59434;SDS011;45241;49.768;8.636;2023-03-08T01:07:53;10.50;;;6.57;;
59434;SDS011;45241;49.768;8.636;2023-03-08T01:10:18;13.07;;;7.93;;
59434;SDS011;45241;49.768;8.636;2023-03-08T01:12:43;11.55;;;7.10;;
59434;SDS011;45241;49.768;8.636;2023-03-08T01:15:09;11.45;;;6.85;;
59434;SDS011;45241;49.768;8.636;2023-03-08T01:17:34;14.52;;;7.28;;
59434;SDS011;45241;49.768;8.636;2023-03-08T01:20:00;12.10;;;6.95;;
59434;SDS011;45241;49.768;8.636;2023-03-08T01:22:25;12.10;;;7.05;;
59434;SDS011;45241;49.768;8.636;2023-03-08T01:24:50;12.27;;;7.35;;
59434;SDS011;45241;49.768;8.636;2023-03-08T01:27:16;13.52;;;7.13;;
59434;SDS011;45241;49.768;8.636;2023-03-08T01:29:42;12.23;;;6.72;;
59434;SDS011;45241;49.768;8.636;2023-03-08T01:32:08;12.00;;;7.75;;
59434;SDS011;45241;49.768;8.636;2023-03-08T01:34:37;11.05;;;6.57;;
59434;SDS011;45241;49.768;8.636;2023-03-08T01:37:02;11.82;;;7.13;;
59434;SDS011;45241;49.768;8.636;2023-03-08T01:39:28;11.50;;;7.25;;
59434;SDS011;45241;49.768;8.636;2023-03-08T01:41:53;13.95;;;7.55;;
59434;SDS011;45241;49.768;8.636;2023-03-08T01:44:19;11.98;;;7.13;;
59434;SDS011;45241;49.768;8.636;2023-03-08T01:46:46;12.50;;;7.32;;
59434;SDS011;45241;49.768;8.636;2023-03-08T01:49:25;12.70;;;7.45;;
59434;SDS011;45241;49.768;8.636;2023-03-08T01:55:20;13.32;;;7.25;;
59434;SDS011;45241;49.768;8.636;2023-03-08T01:57:23;12.85;;;6.50;;
59434;SDS011;45241;49.768;8.636;2023-03-08T01:59:52;10.95;;;6.55;;
59434;SDS011;45241;49.768;8.636;2023-03-08T02:02:22;13.57;;;7.20;;
59434;SDS011;45241;49.768;8.636;2023-03-08T02:04:51;10.40;;;6.60;;
59434;SDS011;45241;49.768;8.636;2023-03-08T02:07:17;12.55;;;7.05;;
59434;SDS011;45241;49.768;8.636;2023-03-08T02:09:42;12.48;;;6.60;;
59434;SDS011;45241;49.768;8.636;2023-03-08T02:12:10;10.88;;;6.28;;
59434;SDS011;45241;49.768;8.636;2023-03-08T02:14:38;13.20;;;6.50;;
59434;SDS011;45241;49.768;8.636;2023-03-08T02:17:06;10.73;;;6.80;;
59434;SDS011;45241;49.768;8.636;2023-03-08T02:19:33;12.20;;;6.90;;
59434;SDS011;45241;49.768;8.636;2023-03-08T02:22:09;12.00;;;6.43;;
59434;SDS011;45241;49.768;8.636;2023-03-08T02:24:36;11.38;;;6.70;;
59434;SDS011;45241;49.768;8.636;2023-03-08T02:27:04;11.48;;;6.47;;
59434;SDS011;45241;49.768;8.636;2023-03-08T02:29:31;13.32;;;7.20;;
59434;SDS011;45241;49.768;8.636;2023-03-08T02:31:57;12.63;;;6.80;;
59434;SDS011;45241;49.768;8.636;2023-03-08T02:34:22;13.85;;;6.93;;
59434;SDS011;45241;49.768;8.636;2023-03-08T02:36:47;14.15;;;6.47;;
59434;SDS011;45241;49.768;8.636;2023-03-08T02:39:13;12.65;;;7.00;;
59434;SDS011;45241;49.768;8.636;2023-03-08T02:41:38;12.93;;;7.35;;
59434;SDS011;45241;49.768;8.636;2023-03-08T02:44:03;13.93;;;6.45;;
59434;SDS011;45241;49.768;8.636;2023-03-08T02:46:29;10.00;;;6.55;;
59434;SDS011;45241;49.768;8.636;2023-03-08T02:48:54;12.00;;;6.63;;
59434;SDS011;45241;49.768;8.636;2023-03-08T02:51:19;10.07;;;6.70;;
59434;SDS011;45241;49.768;8.636;2023-03-08T02:53:44;13.48;;;7.55;;
59434;SDS011;45241;49.768;8.636;2023-03-08T02:56:10;10.50;;;6.40;;
59434;SDS011;45241;49.768;8.636;2023-03-08T02:58:35;13.07;;;7.32;;
59434;SDS011;45241;49.768;8.636;2023-03-08T03:01:00;11.05;;;6.40;;
59434;SDS011;45241;49.768;8.636;2023-03-08T03:03:26;14.90;;;7.15;;
59434;SDS011;45241;49.768;8.636;2023-03-08T03:05:51;11.52;;;7.00;;
59434;SDS011;45241;49.768;8.636;2023-03-08T03:08:16;12.52;;;7.00;;
59434;SDS011;45241;49.768;8.636;2023-03-08T03:10:42;14.15;;;7.80;;
59434;SDS011;45241;49.768;8.636;2023-03-08T03:13:07;13.30;;;7.15;;
59434;SDS011;45241;49.768;8.636;2023-03-08T03:15:33;13.52;;;7.15;;
59434;SDS011;45241;49.768;8.636;2023-03-08T03:18:02;14.95;;;7.85;;
59434;SDS011;45241;49.768;8.636;2023-03-08T03:20:29;12.48;;;7.00;;
59434;SDS011;45241;49.768;8.636;2023-03-08T03:22:54;11.15;;;6.97;;
59434;SDS011;45241;49.768;8.636;2023-03-08T03:25:19;11.85;;;7.50;;
59434;SDS011;45241;49.768;8.636;2023-03-08T03:27:45;12.43;;;7.00;;
59434;SDS011;45241;49.768;8.636;2023-03-08T03:30:10;14.95;;;7.80;;
59434;SDS011;45241;49.768;8.636;2023-03-08T03:32:36;13.63;;;7.40;;
59434;SDS011;45241;49.768;8.636;2023-03-08T03:35:01;12.68;;;7.03;;
59434;SDS011;45241;49.768;8.636;2023-03-08T03:37:27;12.27;;;7.22;;
59434;SDS011;45241;49.768;8.636;2023-03-08T03:39:52;13.60;;;7.20;;
59434;SDS011;45241;49.768;8.636;2023-03-08T03:42:18;10.85;;;7.10;;
59434;SDS011;45241;49.768;8.636;2023-03-08T03:44:43;13.43;;;7.78;;
59434;SDS011;45241;49.768;8.636;2023-03-08T03:47:09;12.40;;;7.43;;
59434;SDS011;45241;49.768;8.636;2023-03-08T03:49:34;11.10;;;6.75;;
59434;SDS011;45241;49.768;8.636;2023-03-08T03:51:59;14.13;;;8.20;;
59434;SDS011;45241;49.768;8.636;2023-03-08T03:54:25;11.73;;;6.80;;
59434;SDS011;45241;49.768;8.636;2023-03-08T03:56:50;13.68;;;7.65;;
59434;SDS011;45241;49.768;8.636;2023-03-08T03:59:16;12.30;;;7.35;;
59434;SDS011;45241;49.768;8.636;2023-03-08T04:01:41;12.85;;;7.78;;
59434;SDS011;45241;49.768;8.636;2023-03-08T04:04:08;12.35;;;6.82;;
59434;SDS011;45241;49.768;8.636;2023-03-08T04:06:34;15.73;;;7.68;;
59434;SDS011;45241;49.768;8.636;2023-03-08T04:09:00;13.30;;;7.25;;
59434;SDS011;45241;49.768;8.636;2023-03-08T04:11:31;13.35;;;7.85;;
59434;SDS011;45241;49.768;8.636;2023-03-08T04:13:58;13.85;;;7.90;;
59434;SDS011;45241;49.768;8.636;2023-03-08T04:16:25;14.68;;;8.27;;
59434;SDS011;45241;49.768;8.636;2023-03-08T04:18:56;12.98;;;7.05;;
59434;SDS011;45241;49.768;8.636;2023-03-08T04:21:23;13.02;;;7.82;;
59434;SDS011;45241;49.768;8.636;2023-03-08T04:23:49;12.63;;;7.72;;
59434;SDS011;45241;49.768;8.636;2023-03-08T04:26:14;16.02;;;8.05;;
59434;SDS011;45241;49.768;8.636;2023-03-08T04:28:40;13.85;;;7.60;;
59434;SDS011;45241;49.768;8.636;2023-03-08T04:31:10;14.75;;;7.57;;
59434;SDS011;45241;49.768;8.636;2023-03-08T04:33:38;14.48;;;7.63;;
59434;SDS011;45241;49.768;8.636;2023-03-08T04:36:03;12.57;;;7.60;;
59434;SDS011;45241;49.768;8.636;2023-03-08T04:38:29;13.80;;;7.45;;
59434;SDS011;45241;49.768;8.636;2023-03-08T04:40:57;12.18;;;7.47;;
59434;SDS011;45241;49.768;8.636;2023-03-08T04:43:55;11.82;;;6.90;;
59434;SDS011;45241;49.768;8.636;2023-03-08T04:46:24;12.30;;;7.18;;
59434;SDS011;45241;49.768;8.636;2023-03-08T04:48:51;14.85;;;7.47;;
59434;SDS011;45241;49.768;8.636;2023-03-08T04:51:18;12.02;;;7.40;;
59434;SDS011;45241;49.768;8.636;2023-03-08T04:53:43;13.98;;;7.57;;
59434;SDS011;45241;49.768;8.636;2023-03-08T04:56:09;12.85;;;7.78;;
59434;SDS011;45241;49.768;8.636;2023-03-08T04:58:35;12.88;;;7.32;;
59434;SDS011;45241;49.768;8.636;2023-03-08T05:01:10;11.80;;;6.97;;
59434;SDS011;45241;49.768;8.636;2023-03-08T05:03:37;13.63;;;7.80;;
59434;SDS011;45241;49.768;8.636;2023-03-08T05:06:03;12.50;;;7.50;;
59434;SDS011;45241;49.768;8.636;2023-03-08T05:08:29;12.25;;;7.25;;
59434;SDS011;45241;49.768;8.636;2023-03-08T05:10:55;14.57;;;7.75;;
59434;SDS011;45241;49.768;8.636;2023-03-08T05:13:23;14.38;;;7.35;;
59434;SDS011;45241;49.768;8.636;2023-03-08T05:15:52;13.93;;;7.75;;
59434;SDS011;45241;49.768;8.636;2023-03-08T05:18:18;12.90;;;7.70;;
59434;SDS011;45241;49.768;8.636;2023-03-08T05:20:43;12.73;;;7.13;;
59434;SDS011;45241;49.768;8.636;2023-03-08T05:23:09;11.95;;;6.95;;
59434;SDS011;45241;49.768;8.636;2023-03-08T05:25:39;11.02;;;7.25;;
59434;SDS011;45241;49.768;8.636;2023-03-08T05:28:06;11.70;;;7.20;;
59434;SDS011;45241;49.768;8.636;2023-03-08T05:30:31;12.57;;;7.57;;
59434;SDS011;45241;49.768;8.636;2023-03-08T05:32:56;15.30;;;7.75;;
59434;SDS011;45241;49.768;8.636;2023-03-08T05:35:22;12.63;;;7.40;;
59434;SDS011;45241;49.768;8.636;2023-03-08T05:37:47;12.10;;;7.20;;
59434;SDS011;45241;49.768;8.636;2023-03-08T05:40:12;13.65;;;7.45;;
59434;SDS011;45241;49.768;8.636;2023-03-08T05:42:38;14.13;;;7.40;;
59434;SDS011;45241;49.768;8.636;2023-03-08T05:45:03;11.38;;;7.25;;
59434;SDS011;45241;49.768;8.636;2023-03-08T05:47:29;11.57;;;7.30;;
59434;SDS011;45241;49.768;8.636;2023-03-08T05:49:54;12.90;;;7.00;;
59434;SDS011;45241;49.768;8.636;2023-03-08T05:54:55;15.27;;;7.55;;
59434;SDS011;45241;49.768;8.636;2023-03-08T05:57:20;12.57;;;7.85;;
59434;SDS011;45241;49.768;8.636;2023-03-08T05:59:45;12.95;;;8.05;;
59434;SDS011;45241;49.768;8.636;2023-03-08T06:02:11;14.30;;;8.13;;
59434;SDS011;45241;49.768;8.636;2023-03-08T06:04:36;17.20;;;8.93;;
59434;SDS011;45241;49.768;8.636;2023-03-08T06:07:01;14.95;;;8.52;;
59434;SDS011;45241;49.768;8.636;2023-03-08T06:09:27;16.48;;;9.00;;
59434;SDS011;45241;49.768;8.636;2023-03-08T06:11:52;15.13;;;8.02;;
59434;SDS011;45241;49.768;8.636;2023-03-08T06:14:17;16.02;;;8.43;;
59434;SDS011;45241;49.768;8.636;2023-03-08T06:16:42;18.25;;;8.43;;
59434;SDS011;45241;49.768;8.636;2023-03-08T06:19:12;16.27;;;8.80;;
59434;SDS011;45241;49.768;8.636;2023-03-08T06:21:37;16.25;;;8.68;;
59434;SDS011;45241;49.768;8.636;2023-03-08T06:24:02;15.38;;;8.75;;
59434;SDS011;45241;49.768;8.636;2023-03-08T06:26:28;13.30;;;7.75;;
59434;SDS011;45241;49.768;8.636;2023-03-08T06:28:53;13.15;;;7.28;;
59434;SDS011;45241;49.768;8.636;2023-03-08T06:31:19;15.25;;;8.05;;
59434;SDS011;45241;49.768;8.636;2023-03-08T06:33:44;15.15;;;7.57;;
59434;SDS011;45241;49.768;8.636;2023-03-08T06:36:11;16.02;;;7.63;;
59434;SDS011;45241;49.768;8.636;2023-03-08T06:38:39;16.90;;;8.05;;
59434;SDS011;45241;49.768;8.636;2023-03-08T06:41:05;14.85;;;8.10;;
59434;SDS011;45241;49.768;8.636;2023-03-08T06:43:32;14.82;;;8.15;;
59434;SDS011;45241;49.768;8.636;2023-03-08T06:45:57;14.85;;;8.85;;
59434;SDS011;45241;49.768;8.636;2023-03-08T06:48:23;15.02;;;8.07;;
59434;SDS011;45241;49.768;8.636;2023-03-08T06:50:49;13.50;;;7.32;;
59434;SDS011;45241;49.768;8.636;2023-03-08T06:53:15;14.82;;;7.80;;
59434;SDS011;45241;49.768;8.636;2023-03-08T06:55:41;15.02;;;8.02;;
59434;SDS011;45241;49.768;8.636;2023-03-08T06:58:07;15.32;;;8.07;;
59434;SDS011;45241;49.768;8.636;2023-03-08T07:00:33;14.15;;;7.57;;
59434;SDS011;45241;49.768;8.636;2023-03-08T07:02:58;13.48;;;7.75;;
59434;SDS011;45241;49.768;8.636;2023-03-08T07:05:24;14.82;;;7.45;;
59434;SDS011;45241;49.768;8.636;2023-03-08T07:07:50;15.27;;;7.82;;
59434;SDS011;45241;49.768;8.636;2023-03-08T07:10:16;15.55;;;8.48;;
59434;SDS011;45241;49.768;8.636;2023-03-08T07:12:43;14.45;;;8.27;;
59434;SDS011;45241;49.768;8.636;2023-03-08T07:15:12;13.98;;;7.25;;
59434;SDS011;45241;49.768;8.636;2023-03-08T07:17:40;14.18;;;8.02;;
59434;SDS011;45241;49.768;8.636;2023-03-08T07:20:09;15.85;;;7.55;;
59434;SDS011;45241;49.768;8.636;2023-03-08T07:22:35;15.73;;;8.52;;
59434;SDS011;45241;49.768;8.636;2023-03-08T07:25:01;15.50;;;7.93;;
59434;SDS011;45241;49.768;8.636;2023-03-08T07:27:26;14.55;;;8.07;;
59434;SDS011;45241;49.768;8.636;2023-03-08T07:29:52;14.15;;;7.97;;
59434;SDS011;45241;49.768;8.636;2023-03-08T07:32:17;14.40;;;8.15;;
59434;SDS011;45241;49.768;8.636;2023-03-08T07:34:43;18.98;;;8.75;;
59434;SDS011;45241;49.768;8.636;2023-03-08T07:37:12;17.77;;;9.23;;
59434;SDS011;45241;49.768;8.636;2023-03-08T07:39:40;18.95;;;9.25;;
59434;SDS011;45241;49.768;8.636;2023-03-08T07:42:06;17.05;;;9.00;;
59434;SDS011;45241;49.768;8.636;2023-03-08T07:44:32;18.45;;;9.38;;
59434;SDS011;45241;49.768;8.636;2023-03-08T07:46:57;17.10;;;9.13;;
59434;SDS011;45241;49.768;8.636;2023-03-08T07:49:23;15.68;;;8.85;;
59434;SDS011;45241;49.768;8.636;2023-03-08T07:51:48;17.63;;;9.88;;
59434;SDS011;45241;49.768;8.636;2023-03-08T07:54:15;19.83;;;10.52;;
59434;SDS011;45241;49.768;8.636;2023-03-08T07:56:40;17.17;;;10.20;;
59434;SDS011;45241;49.768;8.636;2023-03-08T07:59:06;18.63;;;10.20;;
59434;SDS011;45241;49.768;8.636;2023-03-08T08:01:31;20.30;;;9.65;;
59434;SDS011;45241;49.768;8.636;2023-03-08T08:03:57;19.67;;;10.35;;
59434;SDS011;45241;49.768;8.636;2023-03-08T08:06:23;18.75;;;10.25;;
59434;SDS011;45241;49.768;8.636;2023-03-08T08:08:49;20.10;;;10.57;;
59434;SDS011;45241;49.768;8.636;2023-03-08T08:11:15;18.80;;;10.18;;
59434;SDS011;45241;49.768;8.636;2023-03-08T08:13:43;19.58;;;10.30;;
59434;SDS011;45241;49.768;8.636;2023-03-08T08:16:10;19.90;;;10.70;;
59434;SDS011;45241;49.768;8.636;2023-03-08T08:18:36;19.30;;;10.35;;
59434;SDS011;45241;49.768;8.636;2023-03-08T08:21:03;17.98;;;11.02;;
59434;SDS011;45241;49.768;8.636;2023-03-08T08:23:30;20.33;;;11.30;;
59434;SDS011;45241;49.768;8.636;2023-03-08T08:25:55;17.15;;;10.50;;
59434;SDS011;45241;49.768;8.636;2023-03-08T08:28:22;20.50;;;11.20;;
59434;SDS011;45241;49.768;8.636;2023-03-08T08:30:58;19.02;;;10.95;;
59434;SDS011;45241;49.768;8.636;2023-03-08T08:33:26;20.73;;;11.48;;
59434;SDS011;45241;49.768;8.636;2023-03-08T08:35:52;19.88;;;11.38;;
59434;SDS011;45241;49.768;8.636;2023-03-08T08:38:18;21.08;;;11.50;;
59434;SDS011;45241;49.768;8.636;2023-03-08T08:40:43;20.77;;;12.35;;
59434;SDS011;45241;49.768;8.636;2023-03-08T08:43:08;21.75;;;13.25;;
59434;SDS011;45241;49.768;8.636;2023-03-08T08:45:34;18.88;;;11.50;;
59434;SDS011;45241;49.768;8.636;2023-03-08T08:47:59;20.17;;;12.35;;
59434;SDS011;45241;49.768;8.636;2023-03-08T08:50:24;21.30;;;12.30;;
59434;SDS011;45241;49.768;8.636;2023-03-08T08:52:49;24.13;;;12.82;;
59434;SDS011;45241;49.768;8.636;2023-03-08T08:55:15;19.85;;;12.75;;
59434;SDS011;45241;49.768;8.636;2023-03-08T08:57:40;23.60;;;13.40;;
59434;SDS011;45241;49.768;8.636;2023-03-08T09:00:05;20.10;;;13.45;;
59434;SDS011;45241;49.768;8.636;2023-03-08T09:02:33;21.77;;;13.65;;
59434;SDS011;45241;49.768;8.636;2023-03-08T09:04:59;23.48;;;13.95;;
59434;SDS011;45241;49.768;8.636;2023-03-08T09:07:24;24.15;;;14.30;;
59434;SDS011;45241;49.768;8.636;2023-03-08T09:09:52;21.60;;;14.02;;
59434;SDS011;45241;49.768;8.636;2023-03-08T09:12:18;23.92;;;14.77;;
59434;SDS011;45241;49.768;8.636;2023-03-08T09:14:45;23.08;;;14.68;;
59434;SDS011;45241;49.768;8.636;2023-03-08T09:17:10;23.45;;;14.68;;
59434;SDS011;45241;49.768;8.636;2023-03-08T09:19:35;22.27;;;14.13;;
59434;SDS011;45241;49.768;8.636;2023-03-08T09:22:01;22.05;;;14.50;;
59434;SDS011;45241;49.768;8.636;2023-03-08T09:24:26;22.30;;;14.45;;
59434;SDS011;45241;49.768;8.636;2023-03-08T09:26:52;22.05;;;13.65;;
59434;SDS011;45241;49.768;8.636;2023-03-08T09:29:17;20.70;;;13.27;;
59434;SDS011;45241;49.768;8.636;2023-03-08T09:31:42;23.35;;;13.40;;
59434;SDS011;45241;49.768;8.636;2023-03-08T09:34:09;20.92;;;12.75;;
59434;SDS011;45241;49.768;8.636;2023-03-08T09:36:36;20.95;;;13.18;;
59434;SDS011;45241;49.768;8.636;2023-03-08T09:39:03;20.38;;;12.30;;
59434;SDS011;45241;49.768;8.636;2023-03-08T09:47:15;16.73;;;9.65;;
59434;SDS011;45241;49.768;8.636;2023-03-08T09:49:48;15.70;;;9.98;;
59434;SDS011;45241;49.768;8.636;2023-03-08T09:54:51;14.07;;;9.55;;
59434;SDS011;45241;49.768;8.636;2023-03-08T09:57:39;13.82;;;9.45;;
59434;SDS011;45241;49.768;8.636;2023-03-08T10:00:09;15.32;;;10.07;;
59434;SDS011;45241;49.768;8.636;2023-03-08T10:03:01;14.35;;;8.80;;
59434;SDS011;45241;49.768;8.636;2023-03-08T10:06:14;12.52;;;8.43;;
59434;SDS011;45241;49.768;8.636;2023-03-08T10:08:22;13.30;;;8.63;;
59434;SDS011;45241;49.768;8.636;2023-03-08T10:16:03;12.25;;;7.93;;
59434;SDS011;45241;49.768;8.636;2023-03-08T10:18:39;10.25;;;7.03;;
59434;SDS011;45241;49.768;8.636;2023-03-08T10:21:19;9.20;;;6.07;;
59434;SDS011;45241;49.768;8.636;2023-03-08T10:26:33;10.98;;;6.50;;
59434;SDS011;45241;49.768;8.636;2023-03-08T10:28:59;9.88;;;6.10;;
59434;SDS011;45241;49.768;8.636;2023-03-08T10:31:25;7.55;;;5.20;;
59434;SDS011;45241;49.768;8.636;2023-03-08T10:34:01;8.95;;;6.18;;
59434;SDS011;45241;49.768;8.636;2023-03-08T10:36:33;8.27;;;6.03;;
59434;SDS011;45241;49.768;8.636;2023-03-08T10:39:00;8.07;;;5.60;;
59434;SDS011;45241;49.768;8.636;2023-03-08T10:41:26;9.63;;;5.65;;
59434;SDS011;45241;49.768;8.636;2023-03-08T10:43:53;8.63;;;6.13;;
59434;SDS011;45241;49.768;8.636;2023-03-08T10:46:21;9.25;;;6.10;;
59434;SDS011;45241;49.768;8.636;2023-03-08T10:48:50;10.57;;;6.45;;
59434;SDS011;45241;49.768;8.636;2023-03-08T10:51:18;11.07;;;7.00;;
59434;SDS011;45241;49.768;8.636;2023-03-08T10:54:09;9.77;;;6.63;;
59434;SDS011;45241;49.768;8.636;2023-03-08T10:56:39;11.15;;;7.03;;
59434;SDS011;45241;49.768;8.636;2023-03-08T10:59:16;14.70;;;7.43;;
59434;SDS011;45241;49.768;8.636;2023-03-08T11:01:49;10.48;;;6.85;;
59434;SDS011;45241;49.768;8.636;2023-03-08T11:04:17;11.23;;;7.53;;
59434;SDS011;45241;49.768;8.636;2023-03-08T11:06:45;13.57;;;7.75;;
59434;SDS011;45241;49.768;8.636;2023-03-08T11:09:21;13.73;;;8.50;;
59434;SDS011;45241;49.768;8.636;2023-03-08T11:11:50;11.32;;;7.75;;
59434;SDS011;45241;49.768;8.636;2023-03-08T11:14:16;13.45;;;8.43;;
59434;SDS011;45241;49.768;8.636;2023-03-08T11:22:36;13.43;;;9.65;;
59434;SDS011;45241;49.768;8.636;2023-03-08T11:25:13;15.23;;;9.45;;
59434;SDS011;45241;49.768;8.636;2023-03-08T11:41:40;16.15;;;10.30;;
59434;SDS011;45241;49.768;8.636;2023-03-08T11:55:41;20.25;;;13.43;;
59434;SDS011;45241;49.768;8.636;2023-03-08T11:58:16;20.15;;;13.63;;
59434;SDS011;45241;49.768;8.636;2023-03-08T12:00:49;21.30;;;13.73;;
59434;SDS011;45241;49.768;8.636;2023-03-08T12:03:21;20.40;;;14.70;;
59434;SDS011;45241;49.768;8.636;2023-03-08T12:08:33;22.95;;;13.32;;
59434;SDS011;45241;49.768;8.636;2023-03-08T12:11:04;24.42;;;14.50;;
59434;SDS011;45241;49.768;8.636;2023-03-08T12:13:35;24.58;;;15.90;;
59434;SDS011;45241;49.768;8.636;2023-03-08T12:18:59;23.08;;;15.27;;
59434;SDS011;45241;49.768;8.636;2023-03-08T12:21:50;23.27;;;14.43;;
59434;SDS011;45241;49.768;8.636;2023-03-08T12:26:42;25.23;;;15.57;;
59434;SDS011;45241;49.768;8.636;2023-03-08T12:32:34;22.88;;;15.48;;
59434;SDS011;45241;49.768;8.636;2023-03-08T12:35:04;22.33;;;14.63;;
59434;SDS011;45241;49.768;8.636;2023-03-08T12:37:32;21.17;;;14.05;;
59434;SDS011;45241;49.768;8.636;2023-03-08T12:40:02;19.77;;;14.32;;
59434;SDS011;45241;49.768;8.636;2023-03-08T12:42:41;23.33;;;16.63;;
59434;SDS011;45241;49.768;8.636;2023-03-08T12:45:28;21.65;;;15.30;;
59434;SDS011;45241;49.768;8.636;2023-03-08T12:48:00;24.02;;;15.52;;
59434;SDS011;45241;49.768;8.636;2023-03-08T12:50:40;25.00;;;16.75;;
59434;SDS011;45241;49.768;8.636;2023-03-08T12:56:04;24.15;;;15.63;;
59434;SDS011;45241;49.768;8.636;2023-03-08T12:58:53;22.70;;;14.57;;
59434;SDS011;45241;49.768;8.636;2023-03-08T13:04:01;19.92;;;13.43;;
59434;SDS011;45241;49.768;8.636;2023-03-08T13:06:36;21.27;;;15.00;;
59434;SDS011;45241;49.768;8.636;2023-03-08T13:17:27;21.20;;;11.50;;
59434;SDS011;45241;49.768;8.636;2023-03-08T13:20:11;20.83;;;12.02;;
59434;SDS011;45241;49.768;8.636;2023-03-08T13:25:25;19.15;;;11.23;;
59434;SDS011;45241;49.768;8.636;2023-03-08T13:30:52;15.63;;;10.38;;
59434;SDS011;45241;49.768;8.636;2023-03-08T13:33:21;14.82;;;9.27;;
59434;SDS011;45241;49.768;8.636;2023-03-08T13:35:53;14.85;;;8.73;;
59434;SDS011;45241;49.768;8.636;2023-03-08T13:38:23;13.05;;;7.93;;
59434;SDS011;45241;49.768;8.636;2023-03-08T13:40:52;14.85;;;7.05;;
59434;SDS011;45241;49.768;8.636;2023-03-08T13:43:22;14.93;;;7.63;;
59434;SDS011;45241;49.768;8.636;2023-03-08T13:45:53;15.50;;;8.90;;
59434;SDS011;45241;49.768;8.636;2023-03-08T13:48:20;12.70;;;7.88;;
59434;SDS011;45241;49.768;8.636;2023-03-08T13:50:49;12.93;;;7.35;;
59434;SDS011;45241;49.768;8.636;2023-03-08T13:53:20;13.25;;;7.10;;
59434;SDS011;45241;49.768;8.636;2023-03-08T13:55:49;13.27;;;7.25;;
59434;SDS011;45241;49.768;8.636;2023-03-08T13:58:27;12.70;;;7.27;;
59434;SDS011;45241;49.768;8.636;2023-03-08T14:00:57;14.10;;;8.27;;
59434;SDS011;45241;49.768;8.636;2023-03-08T14:03:25;14.85;;;7.78;;
59434;SDS011;45241;49.768;8.636;2023-03-08T14:05:52;15.23;;;8.13;;
59434;SDS011;45241;49.768;8.636;2023-03-08T14:08:19;16.70;;;8.77;;
59434;SDS011;45241;49.768;8.636;2023-03-08T14:10:47;15.47;;;8.37;;
59434;SDS011;45241;49.768;8.636;2023-03-08T14:13:26;12.60;;;7.50;;
59434;SDS011;45241;49.768;8.636;2023-03-08T14:15:56;13.40;;;7.43;;
59434;SDS011;45241;49.768;8.636;2023-03-08T14:18:35;12.52;;;7.03;;
59434;SDS011;45241;49.768;8.636;2023-03-08T14:21:06;10.90;;;6.03;;
59434;SDS011;45241;49.768;8.636;2023-03-08T14:23:40;10.00;;;6.47;;
59434;SDS011;45241;49.768;8.636;2023-03-08T14:29:10;10.23;;;5.47;;
59434;SDS011;45241;49.768;8.636;2023-03-08T14:34:40;9.35;;;4.95;;
59434;SDS011;45241;49.768;8.636;2023-03-08T14:39:37;8.15;;;4.15;;
59434;SDS011;45241;49.768;8.636;2023-03-08T14:42:15;7.50;;;4.45;;
59434;SDS011;45241;49.768;8.636;2023-03-08T14:44:53;8.80;;;4.45;;
59434;SDS011;45241;49.768;8.636;2023-03-08T14:47:25;7.10;;;4.78;;
59434;SDS011;45241;49.768;8.636;2023-03-08T14:50:00;7.97;;;4.55;;
59434;SDS011;45241;49.768;8.636;2023-03-08T14:52:43;6.65;;;4.57;;
59434;SDS011;45241;49.768;8.636;2023-03-08T14:55:20;6.97;;;4.25;;
59434;SDS011;45241;49.768;8.636;2023-03-08T14:57:55;8.48;;;4.30;;
59434;SDS011;45241;49.768;8.636;2023-03-08T15:00:22;7.28;;;3.92;;
59434;SDS011;45241;49.768;8.636;2023-03-08T15:02:48;7.43;;;4.00;;
59434;SDS011;45241;49.768;8.636;2023-03-08T15:05:15;5.10;;;3.63;;
59434;SDS011;45241;49.768;8.636;2023-03-08T15:07:43;3.95;;;2.70;;
59434;SDS011;45241;49.768;8.636;2023-03-08T15:10:17;5.00;;;2.75;;
59434;SDS011;45241;49.768;8.636;2023-03-08T15:12:54;5.30;;;2.40;;
59434;SDS011;45241;49.768;8.636;2023-03-08T15:15:20;4.43;;;2.88;;
59434;SDS011;45241;49.768;8.636;2023-03-08T15:17:46;7.53;;;3.60;;
59434;SDS011;45241;49.768;8.636;2023-03-08T15:20:12;5.75;;;3.30;;
59434;SDS011;45241;49.768;8.636;2023-03-08T15:22:40;5.13;;;2.80;;
59434;SDS011;45241;49.768;8.636;2023-03-08T15:25:15;4.93;;;2.90;;
59434;SDS011;45241;49.768;8.636;2023-03-08T15:27:45;4.95;;;3.05;;
59434;SDS011;45241;49.768;8.636;2023-03-08T15:30:28;5.93;;;3.05;;
59434;SDS011;45241;49.768;8.636;2023-03-08T15:32:55;5.60;;;2.92;;
59434;SDS011;45241;49.768;8.636;2023-03-08T15:35:21;4.90;;;2.90;;
59434;SDS011;45241;49.768;8.636;2023-03-08T15:37:47;3.83;;;2.90;;
59434;SDS011;45241;49.768;8.636;2023-03-08T15:40:14;5.10;;;3.17;;
59434;SDS011;45241;49.768;8.636;2023-03-08T15:42:44;5.97;;;2.40;;
59434;SDS011;45241;49.768;8.636;2023-03-08T15:45:10;3.92;;;2.25;;
59434;SDS011;45241;49.768;8.636;2023-03-08T15:47:36;5.55;;;2.20;;
59434;SDS011;45241;49.768;8.636;2023-03-08T15:50:02;5.28;;;2.78;;
59434;SDS011;45241;49.768;8.636;2023-03-08T15:52:29;3.75;;;2.40;;
59434;SDS011;45241;49.768;8.636;2023-03-08T15:54:55;4.18;;;2.65;;
59434;SDS011;45241;49.768;8.636;2023-03-08T15:57:20;3.20;;;2.10;;
59434;SDS011;45241;49.768;8.636;2023-03-08T15:59:46;3.70;;;2.08;;
59434;SDS011;45241;49.768;8.636;2023-03-08T16:02:12;3.58;;;2.38;;
59434;SDS011;45241;49.768;8.636;2023-03-08T16:04:39;3.10;;;2.10;;
59434;SDS011;45241;49.768;8.636;2023-03-08T16:07:09;2.85;;;1.92;;
59434;SDS011;45241;49.768;8.636;2023-03-08T16:09:38;3.70;;;2.28;;
59434;SDS011;45241;49.768;8.636;2023-03-08T16:12:04;2.85;;;2.00;;